Terminal Aerodrome Forecast
Issued by NWS Pocatello, ID

Home | Current Version | Previous Version | Text Only | Print | Product List | Glossary On
Versions: 1 2 3 4 5 6 7 8 9 10 11 12
000
FTUS45 KPIH 292300
TAFIDA
TAF
KIDA 292320Z 3000/3024 35006KT P6SM VCSH FEW080 BKN160
     FM300300 VRB05KT P6SM FEW050 SCT180
     FM301800 VRB04KT P6SM VCTS SCT070CB SCT180=

USA.gov is the U.S. government's official web portal to all federal, state and local government web resources and services.